createdAt,value
2022-11-10T00:02:44.072Z,9.71
2022-11-10T00:06:06.776Z,9.63
2022-11-10T00:09:27.790Z,9.75
2022-11-10T00:12:48.925Z,9.73
2022-11-10T00:16:28.787Z,9.67
2022-11-10T00:19:50.327Z,9.42
2022-11-10T00:23:11.527Z,9.40
2022-11-10T00:26:32.508Z,9.33
2022-11-10T00:29:54.095Z,9.42
2022-11-10T00:33:14.798Z,9.41
2022-11-10T00:36:35.547Z,9.31
2022-11-10T00:39:56.573Z,9.16
2022-11-10T00:43:19.373Z,9.19
2022-11-10T00:46:43.773Z,9.15
2022-11-10T00:50:05.210Z,9.07
2022-11-10T00:53:26.102Z,9.07
2022-11-10T00:56:46.935Z,8.94
2022-11-10T01:00:09.115Z,8.91
2022-11-10T01:03:30.094Z,8.89
2022-11-10T01:06:52.869Z,8.99
2022-11-10T01:10:14.104Z,8.92
2022-11-10T01:13:35.496Z,9.04
2022-11-10T01:16:56.306Z,8.96
2022-11-10T01:20:17.190Z,9.04
2022-11-10T01:23:38.251Z,9.09
2022-11-10T01:26:59.118Z,9.13
2022-11-10T01:30:20.338Z,9.24
2022-11-10T01:33:41.952Z,9.17
2022-11-10T01:37:03.309Z,9.25
2022-11-10T01:40:24.750Z,9.10
2022-11-10T01:43:45.579Z,9.16
2022-11-10T01:47:06.443Z,9.07
2022-11-10T01:50:32.021Z,9.13
2022-11-10T01:54:01.090Z,9.18
2022-11-10T01:57:22.019Z,9.24
2022-11-10T02:00:44.127Z,9.01
2022-11-10T02:04:11.313Z,9.06
2022-11-10T02:07:32.604Z,9.04
2022-11-10T02:10:53.578Z,9.02
2022-11-10T02:14:15.676Z,9.05
2022-11-10T02:17:36.840Z,9.09
2022-11-10T02:20:57.899Z,9.18
2022-11-10T02:24:18.829Z,9.27
2022-11-10T02:27:39.643Z,9.23
2022-11-10T02:31:00.934Z,9.32
2022-11-10T02:34:21.883Z,9.32
2022-11-10T02:37:42.685Z,9.24
2022-11-10T02:41:03.875Z,9.28
2022-11-10T02:44:24.632Z,9.27
2022-11-10T02:47:45.538Z,9.33
2022-11-10T02:51:06.833Z,9.35
2022-11-10T02:54:27.813Z,9.36
2022-11-10T02:57:48.691Z,9.50
2022-11-10T03:01:09.707Z,9.55
2022-11-10T03:04:30.761Z,9.59
2022-11-10T03:07:57.150Z,9.61
2022-11-10T03:11:18.132Z,9.70
2022-11-10T03:14:39.139Z,9.83
2022-11-10T03:18:04.369Z,9.86
2022-11-10T03:21:25.299Z,9.82
2022-11-10T03:24:46.084Z,9.67
2022-11-10T03:28:07.014Z,9.67
2022-11-10T03:31:27.737Z,9.75
2022-11-10T03:34:48.503Z,9.63
2022-11-10T03:38:09.270Z,9.52
2022-11-10T03:41:30.094Z,9.50
2022-11-10T03:44:50.829Z,9.70
2022-11-10T03:48:20.612Z,9.73
2022-11-10T03:51:41.689Z,9.68
2022-11-10T03:55:03.669Z,9.81
2022-11-10T03:58:24.584Z,9.76
2022-11-10T04:01:45.653Z,9.72
2022-11-10T04:05:26.743Z,9.76
2022-11-10T04:08:59.668Z,9.89
2022-11-10T04:12:38.979Z,9.95
2022-11-10T04:16:00.202Z,9.92
2022-11-10T04:19:21.058Z,9.92
2022-11-10T04:23:00.381Z,9.96
2022-11-10T04:26:30.137Z,9.91
2022-11-10T04:29:51.103Z,9.82
2022-11-10T04:33:12.701Z,9.82
2022-11-10T04:36:36.947Z,9.83
2022-11-10T04:39:57.935Z,9.92
2022-11-10T04:43:19.091Z,9.89
2022-11-10T04:46:40.480Z,9.91
2022-11-10T04:50:01.422Z,9.97
2022-11-10T04:53:22.883Z,9.85
2022-11-10T04:56:44.066Z,9.85
2022-11-10T05:00:07.417Z,9.92
2022-11-10T05:03:28.195Z,9.99
2022-11-10T05:06:48.959Z,10.03
2022-11-10T05:10:10.373Z,10.04
2022-11-10T05:13:31.675Z,10.05
2022-11-10T05:16:52.570Z,10.13
2022-11-10T05:20:13.327Z,10.10
2022-11-10T05:23:39.728Z,10.02
2022-11-10T05:27:01.135Z,10.03
2022-11-10T05:30:24.059Z,10.10
2022-11-10T05:33:44.999Z,10.05
2022-11-10T05:37:05.989Z,9.91
2022-11-10T05:40:27.281Z,9.96
2022-11-10T05:43:49.086Z,9.99
2022-11-10T05:47:09.850Z,9.94
2022-11-10T05:50:30.611Z,9.90
2022-11-10T05:53:51.452Z,9.65
2022-11-10T05:57:12.326Z,9.58
2022-11-10T06:00:33.581Z,9.63
2022-11-10T06:03:54.861Z,9.72
2022-11-10T06:07:15.893Z,9.71
2022-11-10T06:10:37.210Z,9.90
2022-11-10T06:13:58.060Z,9.94
2022-11-10T06:17:19.261Z,10.02
2022-11-10T06:20:40.455Z,10.20
2022-11-10T06:24:01.357Z,10.39
2022-11-10T06:27:22.274Z,10.23
2022-11-10T06:30:47.259Z,10.34
2022-11-10T06:34:08.742Z,10.34
2022-11-10T06:37:30.133Z,10.40
2022-11-10T06:40:51.000Z,10.34
2022-11-10T06:44:12.365Z,10.37
2022-11-10T06:47:33.586Z,10.13
2022-11-10T06:50:54.782Z,10.33
2022-11-10T06:54:16.040Z,10.36
2022-11-10T06:57:40.151Z,10.36
2022-11-10T07:01:01.578Z,10.29
2022-11-10T07:04:22.702Z,10.48
2022-11-10T07:07:44.301Z,10.33
2022-11-10T07:11:05.459Z,10.46
2022-11-10T07:14:26.453Z,10.55
2022-11-10T07:17:47.390Z,10.64
2022-11-10T07:21:08.336Z,10.59
2022-11-10T07:24:30.596Z,10.54
2022-11-10T07:27:59.732Z,10.74
2022-11-10T07:31:21.144Z,10.65
2022-11-10T07:34:42.265Z,10.36
2022-11-10T07:38:12.655Z,10.59
2022-11-10T07:41:36.152Z,10.76
2022-11-10T07:44:57.462Z,10.78
2022-11-10T07:48:19.864Z,10.91
2022-11-10T07:51:43.206Z,11.59
2022-11-10T07:55:06.748Z,11.95
2022-11-10T07:58:29.812Z,12.74
2022-11-10T08:01:51.127Z,13.51
2022-11-10T08:05:12.122Z,13.44
2022-11-10T08:08:33.438Z,13.72
2022-11-10T08:11:54.600Z,13.73
2022-11-10T08:15:15.727Z,14.43
2022-11-10T08:18:37.118Z,13.45
2022-11-10T08:21:58.186Z,13.97
2022-11-10T08:25:19.368Z,13.40
2022-11-10T08:28:40.364Z,11.62
2022-11-10T08:32:01.632Z,11.67
2022-11-10T08:35:24.855Z,11.40
2022-11-10T08:38:46.469Z,11.18
2022-11-10T08:42:07.548Z,11.36
2022-11-10T08:45:29.508Z,12.66
2022-11-10T08:48:50.734Z,13.47
2022-11-10T08:52:11.586Z,13.78
2022-11-10T08:55:32.964Z,12.80
2022-11-10T08:58:54.330Z,12.82
2022-11-10T09:02:15.507Z,12.59
2022-11-10T09:05:36.855Z,11.84
2022-11-10T09:08:58.098Z,11.87
2022-11-10T09:12:20.277Z,11.54
2022-11-10T09:15:43.054Z,11.39
2022-11-10T09:19:04.127Z,11.50
2022-11-10T09:22:25.199Z,11.18
2022-11-10T09:25:51.946Z,11.21
2022-11-10T09:29:13.304Z,11.28
2022-11-10T09:32:35.284Z,11.25
2022-11-10T09:36:00.189Z,11.02
2022-11-10T09:39:21.970Z,11.28
2022-11-10T09:42:43.288Z,11.23
2022-11-10T09:46:14.355Z,11.38
2022-11-10T09:49:37.558Z,11.57
2022-11-10T09:53:00.697Z,11.56
2022-11-10T09:56:31.176Z,11.51
2022-11-10T09:59:52.793Z,11.68
2022-11-10T10:03:24.477Z,11.72
2022-11-10T10:07:10.626Z,11.70
2022-11-10T10:10:41.378Z,11.83
2022-11-10T10:14:26.964Z,11.86
2022-11-10T10:18:05.038Z,12.10
2022-11-10T10:21:31.761Z,12.20
2022-11-10T10:25:02.171Z,12.15
2022-11-10T10:28:23.331Z,12.34
2022-11-10T10:31:48.734Z,12.37
2022-11-10T10:35:17.675Z,12.32
2022-11-10T10:38:40.109Z,12.39
2022-11-10T10:42:01.568Z,12.44
2022-11-10T10:45:28.978Z,12.58
2022-11-10T10:49:29.606Z,12.72
2022-11-10T10:53:14.160Z,12.91
2022-11-10T10:56:35.323Z,12.71
2022-11-10T11:00:14.678Z,12.80
2022-11-10T11:03:40.519Z,12.81
2022-11-10T11:07:04.719Z,12.80
2022-11-10T11:10:31.385Z,13.08
2022-11-10T11:13:52.802Z,13.09
2022-11-10T11:17:19.957Z,13.21
2022-11-10T11:20:52.748Z,13.24
2022-11-10T11:24:30.383Z,13.23
2022-11-10T11:28:06.256Z,13.21
2022-11-10T11:32:01.419Z,13.18
2022-11-10T11:35:49.116Z,13.30
2022-11-10T11:39:12.770Z,13.26
2022-11-10T11:42:55.631Z,13.33
2022-11-10T11:46:31.875Z,13.30
2022-11-10T11:50:01.645Z,13.16
2022-11-10T11:53:44.330Z,13.23
2022-11-10T11:57:16.727Z,13.31
2022-11-10T12:01:05.049Z,13.14
2022-11-10T12:04:30.113Z,13.09
2022-11-10T12:08:09.642Z,13.13
2022-11-10T12:11:55.192Z,13.21
2022-11-10T12:15:34.661Z,13.12
2022-11-10T12:19:56.297Z,13.26
2022-11-10T12:23:17.475Z,13.04
2022-11-10T12:26:52.651Z,13.11
2022-11-10T12:30:15.745Z,13.15
2022-11-10T12:33:43.706Z,13.06
2022-11-10T12:37:07.788Z,13.13
2022-11-10T12:40:37.969Z,13.27
2022-11-10T12:44:16.250Z,13.25
2022-11-10T12:47:58.116Z,13.21
2022-11-10T12:51:36.069Z,13.25
2022-11-10T12:54:57.262Z,13.30
2022-11-10T12:58:19.666Z,13.27
2022-11-10T13:01:47.667Z,13.26
2022-11-10T13:05:15.417Z,13.19
2022-11-10T13:13:06.819Z,13.00
2022-11-10T13:16:42.799Z,12.99
2022-11-10T13:20:27.855Z,13.06
2022-11-10T13:23:48.798Z,12.96
2022-11-10T13:27:38.164Z,13.35
2022-11-10T13:31:27.431Z,13.44
2022-11-10T13:34:48.734Z,13.32
2022-11-10T13:38:34.561Z,13.38
2022-11-10T13:42:03.923Z,13.70
2022-11-10T13:45:42.846Z,13.61
2022-11-10T13:49:42.847Z,13.78
2022-11-10T13:53:46.474Z,13.94
2022-11-10T13:57:24.445Z,13.79
2022-11-10T14:00:50.507Z,13.69
2022-11-10T14:04:42.512Z,13.50
2022-11-10T14:08:26.410Z,13.56
2022-11-10T14:11:53.334Z,13.59
2022-11-10T14:15:24.131Z,13.68
2022-11-10T14:18:58.047Z,13.81
2022-11-10T14:22:28.959Z,13.64
2022-11-10T14:26:00.970Z,13.73
2022-11-10T14:29:29.233Z,13.55
2022-11-10T14:33:09.415Z,13.67
2022-11-10T14:36:31.528Z,13.84
2022-11-10T14:40:03.357Z,13.83
2022-11-10T14:43:41.418Z,13.43
2022-11-10T14:47:35.796Z,12.98
2022-11-10T14:51:04.024Z,12.90
2022-11-10T14:54:27.569Z,12.70
2022-11-10T14:58:17.669Z,12.62
2022-11-10T15:01:48.140Z,12.56
2022-11-10T15:05:15.599Z,12.41
2022-11-10T15:08:37.898Z,12.47
2022-11-10T15:12:17.819Z,12.49
2022-11-10T15:15:40.167Z,12.44
2022-11-10T15:19:36.829Z,12.20
2022-11-10T15:22:59.740Z,12.20
2022-11-10T15:26:23.811Z,12.11
2022-11-10T15:29:45.296Z,12.22
2022-11-10T15:33:11.028Z,12.18
2022-11-10T15:36:40.539Z,12.17
2022-11-10T15:40:30.197Z,12.16
2022-11-10T15:43:50.994Z,12.08
2022-11-10T15:47:14.302Z,12.02
2022-11-10T15:50:36.194Z,11.98
2022-11-10T15:53:57.048Z,12.04
2022-11-10T15:57:19.914Z,12.05
2022-11-10T16:00:40.879Z,12.01
2022-11-10T16:04:01.873Z,12.01
2022-11-10T16:07:23.572Z,11.96
2022-11-10T16:10:47.634Z,11.96
2022-11-10T16:14:15.486Z,12.00
2022-11-10T16:17:36.714Z,11.78
2022-11-10T16:20:57.938Z,11.80
2022-11-10T16:24:18.782Z,11.90
2022-11-10T16:27:40.507Z,11.65
2022-11-10T16:31:01.915Z,11.59
2022-11-10T16:34:22.897Z,11.70
2022-11-10T16:37:43.908Z,11.75
2022-11-10T16:41:12.595Z,11.72
2022-11-10T16:44:33.492Z,11.61
2022-11-10T16:47:54.813Z,11.58
2022-11-10T16:51:17.923Z,11.56
2022-11-10T16:54:39.180Z,11.64
2022-11-10T16:58:00.398Z,11.75
2022-11-10T17:01:30.097Z,11.63
2022-11-10T17:04:51.143Z,11.60
2022-11-10T17:08:27.414Z,11.65
2022-11-10T17:11:48.720Z,11.51
2022-11-10T17:15:12.635Z,11.49
2022-11-10T17:18:35.307Z,11.51
2022-11-10T17:21:56.852Z,11.56
2022-11-10T17:25:30.171Z,11.57
2022-11-10T17:28:51.017Z,11.49
2022-11-10T17:32:12.184Z,11.50
2022-11-10T17:35:55.355Z,11.47
2022-11-10T17:39:17.192Z,11.40
2022-11-10T17:42:39.139Z,11.42
2022-11-10T17:45:59.998Z,11.59
2022-11-10T17:49:21.450Z,11.33
2022-11-10T17:52:42.615Z,11.35
2022-11-10T17:56:04.133Z,11.29
2022-11-10T17:59:24.867Z,11.28
2022-11-10T18:02:51.189Z,11.29
2022-11-10T18:06:20.956Z,11.24
2022-11-10T18:09:42.478Z,11.28
2022-11-10T18:13:03.826Z,11.33
2022-11-10T18:16:24.765Z,11.33
2022-11-10T18:19:46.259Z,11.33
2022-11-10T18:23:11.475Z,11.41
2022-11-10T18:26:32.832Z,11.36
2022-11-10T18:29:54.497Z,11.32
2022-11-10T18:33:15.613Z,11.16
2022-11-10T18:36:36.753Z,11.04
2022-11-10T18:39:58.477Z,11.07
2022-11-10T18:43:19.976Z,10.91
2022-11-10T18:46:43.343Z,11.01
2022-11-10T18:50:05.044Z,10.92
2022-11-10T18:53:26.222Z,10.68
2022-11-10T18:56:47.411Z,10.61
2022-11-10T19:00:10.651Z,10.58
2022-11-10T19:03:32.347Z,10.66
2022-11-10T19:06:53.662Z,10.57
2022-11-10T19:10:15.062Z,10.66
2022-11-10T19:13:37.241Z,10.63
2022-11-10T19:16:58.327Z,10.66
2022-11-10T19:20:19.609Z,10.50
2022-11-10T19:23:41.729Z,10.40
2022-11-10T19:27:03.010Z,10.25
2022-11-10T19:30:24.311Z,10.11
2022-11-10T19:33:46.308Z,10.03
2022-11-10T19:37:08.683Z,9.90
2022-11-10T19:40:29.966Z,9.77
2022-11-10T19:43:51.465Z,9.66
2022-11-10T19:47:14.597Z,9.50
2022-11-10T19:50:36.348Z,9.41
2022-11-10T19:54:01.928Z,9.30
2022-11-10T19:57:23.691Z,9.15
2022-11-10T20:00:47.230Z,9.13
2022-11-10T20:04:08.669Z,8.88
2022-11-10T20:07:48.431Z,8.79
2022-11-10T20:11:14.415Z,8.67
2022-11-10T20:14:35.873Z,8.72
2022-11-10T20:17:56.979Z,8.86
2022-11-10T20:21:22.739Z,8.86
2022-11-10T20:24:49.909Z,8.88
2022-11-10T20:28:13.915Z,8.77
2022-11-10T20:31:36.945Z,8.65
2022-11-10T20:34:59.197Z,8.64
2022-11-10T20:38:20.205Z,8.49
2022-11-10T20:41:41.402Z,8.36
2022-11-10T20:45:02.420Z,8.32
2022-11-10T20:48:23.398Z,8.22
2022-11-10T20:51:44.381Z,8.12
2022-11-10T20:55:06.814Z,8.02
2022-11-10T20:58:28.987Z,7.97
2022-11-10T21:01:50.218Z,8.00
2022-11-10T21:05:11.304Z,7.91
2022-11-10T21:08:32.665Z,8.07
2022-11-10T21:12:12.516Z,8.14
2022-11-10T21:15:38.266Z,8.43
2022-11-10T21:19:00.781Z,8.29
2022-11-10T21:22:22.092Z,8.25
2022-11-10T21:25:43.433Z,8.25
2022-11-10T21:29:07.820Z,8.23
2022-11-10T21:32:28.913Z,8.22
2022-11-10T21:35:50.211Z,8.30
2022-11-10T21:39:11.206Z,8.29
2022-11-10T21:42:35.463Z,8.42
2022-11-10T21:45:57.679Z,8.47
2022-11-10T21:49:18.612Z,8.38
2022-11-10T21:52:39.419Z,8.31
2022-11-10T21:56:07.067Z,8.23
2022-11-10T21:59:27.891Z,8.17
2022-11-10T22:02:48.732Z,8.14
2022-11-10T22:06:13.339Z,8.16
2022-11-10T22:09:53.187Z,7.97
2022-11-10T22:13:35.002Z,7.80
2022-11-10T22:17:14.806Z,7.87
2022-11-10T22:20:35.929Z,7.93
2022-11-10T22:24:15.266Z,7.93
2022-11-10T22:27:36.203Z,7.97
2022-11-10T22:30:57.230Z,8.02
2022-11-10T22:34:18.965Z,7.90
2022-11-10T22:37:40.214Z,7.74
2022-11-10T22:41:20.549Z,7.70
2022-11-10T22:44:41.663Z,7.76
2022-11-10T22:48:20.937Z,7.73
2022-11-10T22:51:43.978Z,7.65
2022-11-10T22:55:05.261Z,7.53
2022-11-10T22:58:26.304Z,7.45
2022-11-10T23:01:47.269Z,7.43
2022-11-10T23:05:08.385Z,7.12
2022-11-10T23:08:30.344Z,7.06
2022-11-10T23:11:51.186Z,7.02
2022-11-10T23:15:12.169Z,6.98
2022-11-10T23:18:33.231Z,6.97
2022-11-10T23:21:54.067Z,6.87
2022-11-10T23:25:14.829Z,6.82
2022-11-10T23:28:36.620Z,6.87
2022-11-10T23:31:57.719Z,6.80
2022-11-10T23:35:18.567Z,6.68
2022-11-10T23:38:40.629Z,6.58
2022-11-10T23:42:01.719Z,6.51
2022-11-10T23:45:22.807Z,6.49
2022-11-10T23:48:43.992Z,6.52
2022-11-10T23:52:04.865Z,6.73
2022-11-10T23:55:25.611Z,6.78
2022-11-10T23:58:46.381Z,7.05
